Union Cross, North Carolina
Current Conditions -  °F | °C
As of 2:54 PM on Thursday 30 Oct 2014 (Local Time) from KGSO Reporting Station
Few Clouds Few Clouds  
Wind Chill: 65°   Ceiling: Unl
Heat Index: 65°   Visibility: 10mi
Dew Point: 37°   Wind: 0mph
Humidity: 36%   Direction: NA
Pressure: 29.99"   Gusts: NA
Location:  36.1188°N, 80.075°W
Report Text: KGSO 301854Z 00000KT 10SM FEW060 18/03 A2999 RMK AO2 SLP150 T01830028
Loading
Personal Weather Stations






























Interactive Weather Map
Tropical Storm Tracking
New forecast layout! Learn more

10-Day Weather Forecast

Advertisements
Track Severe Weather on mobile